createdAt,value
2018-11-25T00:00:29.028Z,33.50
2018-11-25T00:01:29.040Z,35.10
2018-11-25T00:02:29.004Z,34.20
2018-11-25T00:03:28.999Z,34.30
2018-11-25T00:04:28.985Z,33.30
2018-11-25T00:05:28.969Z,33.30
2018-11-25T00:06:28.997Z,33.50
2018-11-25T00:08:44.680Z,32.00
2018-11-25T00:09:44.654Z,32.50
2018-11-25T00:10:44.641Z,33.40
2018-11-25T00:11:44.640Z,33.50
2018-11-25T00:12:44.621Z,33.80
2018-11-25T00:13:44.606Z,32.00
2018-11-25T00:14:44.596Z,33.50
2018-11-25T00:15:44.584Z,32.80
2018-11-25T00:16:44.583Z,34.00
2018-11-25T00:17:44.566Z,32.60
2018-11-25T00:18:44.568Z,32.70
2018-11-25T00:19:44.540Z,34.60
2018-11-25T00:20:44.532Z,33.40
2018-11-25T00:21:44.531Z,33.70
2018-11-25T00:22:44.508Z,32.40
2018-11-25T00:23:45.395Z,33.10
2018-11-25T00:24:44.484Z,33.00
2018-11-25T00:25:44.474Z,33.30
2018-11-25T00:26:44.495Z,34.00
2018-11-25T00:27:44.453Z,34.30
2018-11-25T00:28:44.443Z,34.00
2018-11-25T00:29:44.431Z,32.50
2018-11-25T00:30:44.418Z,33.10
2018-11-25T00:31:44.500Z,33.40
2018-11-25T00:32:44.409Z,33.40
2018-11-25T00:33:44.391Z,34.00
2018-11-25T00:34:44.374Z,33.50
2018-11-25T00:35:44.369Z,34.10
2018-11-25T00:36:44.352Z,33.40
2018-11-25T00:37:48.254Z,33.50
2018-11-25T00:38:44.329Z,34.90
2018-11-25T00:39:44.321Z,34.70
2018-11-25T00:40:44.352Z,34.30
2018-11-25T00:41:44.332Z,34.20
2018-11-25T00:42:44.298Z,34.90
2018-11-25T00:43:44.281Z,35.10
2018-11-25T00:44:44.266Z,35.30
2018-11-25T00:45:44.252Z,34.70
2018-11-25T00:46:44.244Z,35.30
2018-11-25T00:47:44.246Z,34.90
2018-11-25T00:48:44.218Z,34.30
2018-11-25T00:49:44.211Z,35.70
2018-11-25T00:50:44.196Z,34.50
2018-11-25T00:51:44.192Z,35.20
2018-11-25T00:52:44.195Z,34.90
2018-11-25T00:53:44.163Z,35.30
2018-11-25T00:54:44.155Z,35.00
2018-11-25T00:55:44.177Z,34.60
2018-11-25T00:56:44.131Z,35.60
2018-11-25T00:57:44.148Z,36.20
2018-11-25T00:58:44.123Z,34.40
2018-11-25T00:59:44.109Z,35.70
2018-11-25T01:00:44.093Z,35.60
2018-11-25T01:01:44.091Z,35.30
2018-11-25T01:02:44.138Z,34.90
2018-11-25T01:03:44.062Z,35.00
2018-11-25T01:04:44.051Z,34.80
2018-11-25T01:05:44.038Z,34.40
2018-11-25T01:06:44.025Z,34.60
2018-11-25T01:07:44.011Z,33.90
2018-11-25T01:08:44.012Z,34.60
2018-11-25T01:09:44.019Z,34.70
2018-11-25T01:10:43.974Z,33.40
2018-11-25T01:11:43.963Z,34.00
2018-11-25T01:12:43.954Z,35.20
2018-11-25T01:13:43.952Z,35.20
2018-11-25T01:14:43.930Z,34.40
2018-11-25T01:15:43.921Z,33.90
2018-11-25T01:16:43.911Z,34.20
2018-11-25T01:17:43.911Z,33.40
2018-11-25T01:18:43.913Z,34.60
2018-11-25T01:19:43.873Z,33.80
2018-11-25T01:20:43.865Z,35.20
2018-11-25T01:21:43.852Z,34.60
2018-11-25T01:22:43.842Z,34.70
2018-11-25T01:23:43.849Z,34.50
2018-11-25T01:24:43.820Z,34.60
2018-11-25T01:25:43.809Z,34.20
2018-11-25T01:27:59.560Z,33.30
2018-11-25T01:28:59.512Z,34.80
2018-11-25T01:29:59.482Z,34.70
2018-11-25T01:30:59.476Z,35.50
2018-11-25T01:31:59.465Z,34.30
2018-11-25T01:32:59.450Z,36.20
2018-11-25T01:33:59.494Z,34.60
2018-11-25T01:35:01.088Z,35.00
2018-11-25T01:35:59.416Z,34.90
2018-11-25T01:36:59.405Z,35.30
2018-11-25T01:37:59.391Z,36.40
2018-11-25T01:38:59.401Z,35.40
2018-11-25T01:39:59.376Z,35.40
2018-11-25T01:40:59.371Z,35.70
2018-11-25T01:41:59.357Z,35.20
2018-11-25T01:42:59.337Z,35.10
2018-11-25T01:43:59.341Z,34.50
2018-11-25T01:44:59.316Z,34.70
2018-11-25T01:45:59.313Z,34.40
2018-11-25T01:46:59.293Z,34.10
2018-11-25T01:52:04.241Z,33.10
2018-11-25T01:54:53.277Z,34.00
2018-11-25T01:55:53.750Z,36.10
2018-11-25T01:58:42.268Z,35.20
2018-11-25T02:01:41.751Z,37.40
2018-11-25T02:05:03.109Z,34.10
2018-11-25T02:06:03.088Z,36.70
2018-11-25T02:09:03.628Z,35.40
2018-11-25T02:10:03.524Z,37.10
2018-11-25T02:11:13.543Z,35.30
2018-11-25T02:12:12.152Z,37.50
2018-11-25T02:14:52.050Z,34.60
2018-11-25T02:18:02.445Z,32.80
2018-11-25T02:20:33.499Z,33.60
2018-11-25T02:22:52.772Z,33.70
2018-11-25T02:24:03.080Z,35.90
2018-11-25T02:26:21.890Z,34.60
2018-11-25T02:27:32.944Z,36.70
2018-11-25T02:30:43.248Z,33.50
2018-11-25T02:31:43.945Z,37.30
2018-11-25T02:32:43.203Z,34.80
2018-11-25T02:33:43.194Z,36.00
2018-11-25T02:34:43.196Z,34.00
2018-11-25T02:35:43.172Z,35.10
2018-11-25T02:36:43.159Z,36.00
2018-11-25T02:37:43.149Z,34.30
2018-11-25T02:40:42.694Z,33.80
2018-11-25T02:41:43.633Z,36.10
2018-11-25T02:44:21.733Z,31.50
2018-11-25T02:47:21.859Z,33.80
2018-11-25T02:50:43.443Z,34.80
2018-11-25T02:51:43.194Z,34.90
2018-11-25T02:54:42.743Z,30.30
2018-11-25T02:55:42.646Z,34.80
2018-11-25T02:58:54.056Z,29.00
2018-11-25T02:59:54.051Z,36.20
2018-11-25T03:02:42.861Z,31.10
2018-11-25T03:03:42.841Z,32.30
2018-11-25T03:04:42.840Z,32.30
2018-11-25T03:07:42.298Z,30.40
2018-11-25T03:10:41.776Z,26.70
2018-11-25T03:11:41.753Z,31.70
2018-11-25T03:14:32.279Z,27.60
2018-11-25T03:18:48.471Z,31.10
2018-11-25T03:21:42.473Z,27.60
2018-11-25T03:22:42.446Z,33.30
2018-11-25T03:23:42.429Z,32.50
2018-11-25T03:26:52.863Z,28.70
2018-11-25T03:27:52.833Z,32.20
2018-11-25T03:28:52.815Z,32.20
2018-11-25T03:29:52.810Z,31.50
2018-11-25T03:32:52.794Z,30.70
2018-11-25T03:33:52.759Z,32.40
2018-11-25T03:36:21.894Z,28.20
2018-11-25T03:39:22.339Z,28.40
2018-11-25T03:40:34.457Z,31.80
2018-11-25T03:43:32.875Z,27.00
2018-11-25T03:44:32.723Z,31.80
2018-11-25T03:45:32.872Z,30.60
2018-11-25T03:46:32.696Z,31.40
2018-11-25T03:47:32.685Z,31.70
2018-11-25T03:48:32.677Z,30.60
2018-11-25T03:49:32.663Z,31.30
2018-11-25T03:50:32.654Z,30.40
2018-11-25T03:51:32.656Z,30.60
2018-11-25T03:52:32.631Z,31.50
2018-11-25T03:54:52.320Z,26.50
2018-11-25T03:56:03.617Z,30.60
2018-11-25T03:59:04.859Z,29.40
2018-11-25T04:00:02.993Z,30.00
2018-11-25T04:03:02.472Z,28.90
2018-11-25T04:06:12.919Z,31.10
2018-11-25T04:07:12.864Z,30.20
2018-11-25T04:08:12.856Z,31.00
2018-11-25T04:09:12.841Z,32.00
2018-11-25T04:12:02.377Z,30.00
2018-11-25T04:13:13.354Z,31.70
2018-11-25T04:14:13.373Z,31.00
2018-11-25T04:17:01.819Z,29.80
2018-11-25T04:18:13.822Z,30.20
2018-11-25T04:20:42.682Z,29.60
2018-11-25T04:23:42.171Z,26.50
2018-11-25T04:24:42.140Z,31.30
2018-11-25T04:27:53.719Z,28.40
2018-11-25T04:30:53.992Z,27.30
2018-11-25T04:31:54.546Z,30.30
2018-11-25T04:32:53.996Z,30.50
2018-11-25T04:35:22.590Z,27.70
2018-11-25T04:36:22.573Z,30.50
2018-11-25T04:37:22.574Z,30.80
2018-11-25T04:40:33.161Z,27.50
2018-11-25T04:43:32.453Z,28.20
2018-11-25T04:44:32.430Z,31.30
2018-11-25T04:47:12.511Z,30.10
2018-11-25T04:50:11.972Z,30.40
2018-11-25T04:51:11.953Z,30.90
2018-11-25T04:52:11.951Z,30.90
2018-11-25T04:53:11.934Z,30.60
2018-11-25T04:56:22.355Z,28.00
2018-11-25T04:57:22.344Z,30.20
2018-11-25T04:59:52.485Z,27.70
2018-11-25T05:00:52.454Z,32.40
2018-11-25T05:03:12.150Z,28.40
2018-11-25T05:04:12.123Z,28.90
2018-11-25T05:05:23.119Z,29.70
2018-11-25T05:07:40.405Z,29.50
2018-11-25T05:08:47.404Z,30.00
2018-11-25T05:09:40.364Z,29.40
2018-11-25T05:10:40.351Z,30.50
2018-11-25T05:11:47.359Z,29.80
2018-11-25T05:12:40.342Z,30.10
2018-11-25T05:13:40.317Z,29.30
2018-11-25T05:14:47.330Z,30.00
2018-11-25T05:15:53.304Z,30.40
2018-11-25T05:16:53.303Z,30.20
2018-11-25T05:17:48.268Z,29.50
2018-11-25T05:18:40.261Z,28.90
2018-11-25T05:19:40.250Z,29.10
2018-11-25T05:20:40.247Z,29.90
2018-11-25T05:21:40.228Z,28.80
2018-11-25T05:22:40.230Z,30.20
2018-11-25T05:23:47.223Z,29.40
2018-11-25T05:24:40.196Z,29.40
2018-11-25T05:25:40.182Z,30.20
2018-11-25T05:26:40.261Z,29.00
2018-11-25T05:27:40.178Z,30.30
2018-11-25T05:28:40.149Z,30.00
2018-11-25T05:29:40.138Z,30.00
2018-11-25T05:30:40.126Z,29.90
2018-11-25T05:31:40.115Z,28.50
2018-11-25T05:32:53.119Z,29.30
2018-11-25T05:33:47.115Z,28.80
2018-11-25T05:34:40.080Z,27.60
2018-11-25T05:35:47.087Z,28.60
2018-11-25T05:36:40.058Z,29.20
2018-11-25T05:37:40.090Z,29.10
2018-11-25T05:38:40.037Z,28.90
2018-11-25T05:39:40.026Z,29.50
2018-11-25T05:40:40.016Z,29.00
2018-11-25T05:41:40.003Z,28.90
2018-11-25T05:42:39.993Z,29.00
2018-11-25T05:43:39.994Z,28.80
2018-11-25T05:44:39.975Z,29.00
2018-11-25T05:45:39.958Z,28.50
2018-11-25T05:46:39.945Z,28.60
2018-11-25T05:47:46.979Z,28.90
2018-11-25T05:48:47.245Z,29.60
2018-11-25T05:49:39.915Z,28.80
2018-11-25T05:50:39.902Z,28.70
2018-11-25T05:51:39.891Z,28.40
2018-11-25T05:52:39.884Z,29.20
2018-11-25T05:53:39.878Z,29.30
2018-11-25T05:54:39.862Z,29.30
2018-11-25T05:55:39.846Z,28.60
2018-11-25T05:56:39.835Z,28.90
2018-11-25T05:57:46.887Z,28.00
2018-11-25T05:58:39.812Z,29.80
2018-11-25T05:59:39.802Z,30.20
2018-11-25T06:00:46.805Z,29.90
2018-11-25T06:01:46.805Z,28.90
2018-11-25T06:02:39.769Z,29.50
2018-11-25T06:03:39.766Z,29.50
2018-11-25T06:04:39.746Z,29.80
2018-11-25T06:05:39.739Z,29.40
2018-11-25T06:06:39.722Z,28.90
2018-11-25T06:07:39.711Z,28.20
2018-11-25T06:08:39.711Z,29.00
2018-11-25T06:09:39.687Z,29.60
2018-11-25T06:10:39.680Z,28.90
2018-11-25T06:11:39.664Z,29.30
2018-11-25T06:12:46.676Z,30.00
2018-11-25T06:13:39.660Z,30.40
2018-11-25T06:14:39.632Z,29.30
2018-11-25T06:15:39.619Z,30.00
2018-11-25T06:16:46.649Z,30.40
2018-11-25T06:17:39.599Z,30.70
2018-11-25T06:18:39.598Z,31.20
2018-11-25T06:19:39.576Z,30.40
2018-11-25T06:20:39.564Z,31.50
2018-11-25T06:21:39.555Z,31.80
2018-11-25T06:22:39.544Z,30.90
2018-11-25T06:23:39.561Z,31.40
2018-11-25T06:24:39.547Z,30.80
2018-11-25T06:25:39.513Z,31.20
2018-11-25T06:26:39.549Z,31.10
2018-11-25T06:27:39.488Z,30.70
2018-11-25T06:28:39.484Z,32.40
2018-11-25T06:29:39.472Z,32.20
2018-11-25T06:30:39.451Z,32.30
2018-11-25T06:31:39.444Z,30.30
2018-11-25T06:32:39.428Z,31.80
2018-11-25T06:33:39.422Z,30.70
2018-11-25T06:34:39.418Z,31.50
2018-11-25T06:35:39.396Z,31.60
2018-11-25T06:36:39.388Z,30.90
2018-11-25T06:37:39.377Z,30.90
2018-11-25T06:38:39.361Z,31.90
2018-11-25T06:39:39.365Z,30.40
2018-11-25T06:40:39.338Z,31.10
2018-11-25T06:41:39.327Z,30.10
2018-11-25T06:42:39.316Z,30.10
2018-11-25T06:43:39.305Z,30.00
2018-11-25T06:44:39.306Z,30.30
2018-11-25T06:45:39.282Z,30.60
2018-11-25T06:46:39.273Z,29.80
2018-11-25T06:47:39.260Z,29.90
2018-11-25T06:48:39.253Z,30.70
2018-11-25T06:49:39.247Z,29.90
2018-11-25T06:50:46.558Z,29.90
2018-11-25T06:51:46.240Z,30.00
2018-11-25T06:52:39.206Z,30.20
2018-11-25T06:53:39.197Z,28.80
2018-11-25T06:54:46.740Z,29.80
2018-11-25T06:55:39.169Z,28.90
2018-11-25T06:56:39.165Z,29.80
2018-11-25T06:57:39.149Z,27.70
2018-11-25T06:58:46.163Z,28.80
2018-11-25T06:59:46.309Z,28.50
2018-11-25T07:00:39.117Z,28.60
2018-11-25T07:01:39.106Z,28.10
2018-11-25T07:02:47.099Z,29.00
2018-11-25T07:03:39.081Z,28.80
2018-11-25T07:04:39.081Z,28.60
2018-11-25T07:05:39.057Z,29.50
2018-11-25T07:06:46.069Z,28.70
2018-11-25T07:07:39.042Z,28.70
2018-11-25T07:08:39.023Z,28.00
2018-11-25T07:09:39.032Z,29.80
2018-11-25T07:10:39.001Z,28.60
2018-11-25T07:11:38.990Z,28.90
2018-11-25T07:12:39.856Z,28.20
2018-11-25T07:13:38.966Z,28.80
2018-11-25T07:14:38.970Z,28.30
2018-11-25T07:15:38.945Z,28.40
2018-11-25T07:16:38.934Z,28.30
2018-11-25T07:17:38.922Z,29.00
2018-11-25T07:18:38.914Z,29.50
2018-11-25T07:19:38.931Z,29.70
2018-11-25T07:20:38.890Z,29.10
2018-11-25T07:21:38.880Z,28.50
2018-11-25T07:22:38.865Z,29.10
2018-11-25T07:23:45.885Z,28.60
2018-11-25T07:24:38.844Z,28.70
2018-11-25T07:25:38.845Z,30.30
2018-11-25T07:26:38.821Z,28.70
2018-11-25T07:27:38.809Z,29.60
2018-11-25T07:28:45.844Z,28.40
2018-11-25T07:29:38.794Z,28.90
2018-11-25T07:30:38.795Z,29.50
2018-11-25T07:31:38.766Z,29.50
2018-11-25T07:32:38.759Z,28.80
2018-11-25T07:33:38.742Z,29.40
2018-11-25T07:34:38.730Z,28.50
2018-11-25T07:35:39.415Z,29.20
2018-11-25T07:36:38.709Z,28.40
2018-11-25T07:37:38.701Z,29.80
2018-11-25T07:38:38.688Z,27.30
2018-11-25T07:39:38.673Z,28.20
2018-11-25T07:40:45.708Z,28.20
2018-11-25T07:41:45.678Z,28.60
2018-11-25T07:42:38.640Z,28.20
2018-11-25T07:43:45.653Z,27.80
2018-11-25T07:44:45.636Z,29.20
2018-11-25T07:45:46.645Z,30.00
2018-11-25T07:46:38.598Z,28.30
2018-11-25T07:47:38.583Z,29.80
2018-11-25T07:48:38.573Z,29.30
2018-11-25T07:49:38.561Z,27.90
2018-11-25T07:50:38.561Z,29.90
2018-11-25T07:51:38.545Z,29.80
2018-11-25T07:52:38.529Z,29.50
2018-11-25T07:53:38.517Z,29.90
2018-11-25T07:54:38.505Z,28.90
2018-11-25T07:55:38.506Z,29.90
2018-11-25T07:56:38.483Z,27.20
2018-11-25T07:57:38.491Z,29.40
2018-11-25T07:58:38.460Z,29.70
2018-11-25T07:59:38.453Z,30.40
2018-11-25T08:00:38.449Z,29.80
2018-11-25T08:01:38.477Z,30.10
2018-11-25T08:02:45.743Z,28.90
2018-11-25T08:03:38.411Z,29.30
2018-11-25T08:04:38.398Z,29.90
2018-11-25T08:05:38.394Z,29.30
2018-11-25T08:06:45.404Z,29.90
2018-11-25T08:07:38.370Z,30.50
2018-11-25T08:08:39.173Z,28.70
2018-11-25T08:09:38.337Z,30.50
2018-11-25T08:10:38.340Z,30.10
2018-11-25T08:11:45.344Z,29.80
2018-11-25T08:12:38.303Z,31.00
2018-11-25T08:13:38.293Z,29.70
2018-11-25T08:14:45.313Z,28.80
2018-11-25T08:15:38.292Z,28.40
2018-11-25T08:16:45.887Z,28.80
2018-11-25T08:17:45.275Z,29.80
2018-11-25T08:18:38.241Z,29.20
2018-11-25T08:19:38.230Z,28.10
2018-11-25T08:20:38.244Z,29.10
2018-11-25T08:21:38.203Z,28.90
2018-11-25T08:22:38.193Z,29.40
2018-11-25T08:23:38.181Z,29.00
2018-11-25T08:24:38.170Z,28.80
2018-11-25T08:25:38.155Z,29.70
2018-11-25T08:26:38.165Z,29.50
2018-11-25T08:27:45.159Z,29.80
2018-11-25T08:28:38.127Z,30.70
2018-11-25T08:29:38.114Z,30.10
2018-11-25T08:30:38.104Z,28.90
2018-11-25T08:31:45.135Z,29.40
2018-11-25T08:32:38.084Z,28.70
2018-11-25T08:33:45.094Z,29.00
2018-11-25T08:34:45.086Z,28.80
2018-11-25T08:35:38.050Z,29.40
2018-11-25T08:36:38.057Z,29.10
2018-11-25T08:37:45.347Z,30.00
2018-11-25T08:38:45.040Z,28.10
2018-11-25T08:39:45.021Z,29.30
2018-11-25T08:40:37.997Z,29.40
2018-11-25T08:41:37.987Z,27.40
2018-11-25T08:42:44.992Z,27.70
2018-11-25T08:43:44.979Z,29.80
2018-11-25T08:44:37.948Z,28.70
2018-11-25T08:45:44.963Z,29.30
2018-11-25T08:46:37.927Z,28.40
2018-11-25T08:47:37.921Z,27.90
2018-11-25T08:48:37.913Z,27.80
2018-11-25T08:49:37.889Z,27.50
2018-11-25T08:50:37.886Z,28.90
2018-11-25T08:51:37.871Z,28.30
2018-11-25T08:52:44.910Z,27.90
2018-11-25T08:53:37.850Z,29.40
2018-11-25T08:54:37.834Z,27.90
2018-11-25T08:55:37.832Z,29.00
2018-11-25T08:56:37.811Z,28.30
2018-11-25T08:57:37.811Z,28.20
2018-11-25T08:58:37.789Z,27.90
2018-11-25T08:59:37.777Z,28.30
2018-11-25T09:00:37.764Z,29.00
2018-11-25T09:01:37.755Z,28.40
2018-11-25T09:02:37.749Z,28.00
2018-11-25T09:03:44.755Z,28.60
2018-11-25T09:04:44.766Z,27.50
2018-11-25T09:05:37.712Z,27.60
2018-11-25T09:06:37.706Z,27.10
2018-11-25T09:07:37.699Z,26.70
2018-11-25T09:08:37.674Z,27.90
2018-11-25T09:09:37.664Z,26.90
2018-11-25T09:10:37.653Z,26.60
2018-11-25T09:11:44.662Z,27.70
2018-11-25T09:12:37.840Z,29.20
2018-11-25T09:13:44.643Z,27.40
2018-11-25T09:14:37.611Z,27.90
2018-11-25T09:15:37.600Z,28.50
2018-11-25T09:16:37.723Z,28.10
2018-11-25T09:17:45.607Z,28.30
2018-11-25T09:18:44.592Z,27.20
2018-11-25T09:19:37.559Z,28.50
2018-11-25T09:20:45.387Z,28.20
2018-11-25T09:21:37.527Z,28.80
2018-11-25T09:22:37.546Z,28.50
2018-11-25T09:23:37.505Z,28.20
2018-11-25T09:24:37.496Z,29.30
2018-11-25T09:25:44.501Z,28.90
2018-11-25T09:26:37.484Z,28.80
2018-11-25T09:27:37.464Z,27.90
2018-11-25T09:28:37.462Z,29.10
2018-11-25T09:29:37.439Z,28.10
2018-11-25T09:30:37.427Z,28.20
2018-11-25T09:31:37.416Z,28.70
2018-11-25T09:33:53.143Z,26.40
2018-11-25T09:36:35.620Z,28.10
2018-11-25T09:38:52.406Z,27.60
2018-11-25T09:39:59.418Z,28.50
2018-11-25T09:41:05.389Z,30.30
2018-11-25T09:41:52.362Z,30.00
2018-11-25T09:43:04.384Z,29.00
2018-11-25T09:44:04.372Z,29.60
2018-11-25T09:45:04.346Z,29.30
2018-11-25T09:46:02.348Z,31.10
2018-11-25T09:47:05.353Z,30.50
2018-11-25T09:48:04.362Z,30.60
2018-11-25T09:48:52.283Z,29.80
2018-11-25T09:49:59.310Z,30.70
2018-11-25T09:50:52.260Z,30.80
2018-11-25T09:52:04.274Z,29.70
2018-11-25T09:53:05.323Z,31.60
2018-11-25T09:55:15.258Z,27.70
2018-11-25T09:58:14.395Z,27.50
2018-11-25T09:59:14.372Z,28.80
2018-11-25T10:00:14.368Z,30.00
2018-11-25T10:01:14.345Z,30.20
2018-11-25T10:04:14.400Z,26.80
2018-11-25T10:05:13.804Z,29.00
2018-11-25T10:08:13.313Z,27.30
2018-11-25T10:09:13.263Z,28.60
2018-11-25T10:10:13.271Z,30.00
2018-11-25T10:13:26.095Z,28.70
2018-11-25T10:16:03.685Z,28.10
2018-11-25T10:17:03.648Z,29.70
2018-11-25T10:18:03.644Z,30.00
2018-11-25T10:21:15.075Z,31.60
2018-11-25T10:23:43.218Z,45.70
2018-11-25T10:26:04.068Z,27.60
2018-11-25T10:29:03.536Z,30.20
2018-11-25T10:30:03.513Z,28.80
2018-11-25T10:32:33.168Z,25.70
2018-11-25T10:35:43.591Z,26.30
2018-11-25T10:38:54.155Z,27.20
2018-11-25T10:41:12.711Z,33.00
2018-11-25T10:42:25.727Z,34.50
2018-11-25T10:43:12.686Z,32.90
2018-11-25T10:44:21.416Z,33.00
2018-11-25T10:45:12.676Z,31.00
2018-11-25T10:46:24.681Z,31.30
2018-11-25T10:48:34.008Z,26.40
2018-11-25T10:49:34.010Z,29.70
2018-11-25T10:52:01.596Z,27.60
2018-11-25T10:53:08.605Z,31.50
2018-11-25T10:54:08.603Z,33.20
2018-11-25T10:55:01.571Z,32.30
2018-11-25T10:56:15.176Z,29.50
2018-11-25T10:57:08.558Z,29.10
2018-11-25T10:58:01.525Z,28.60
2018-11-25T10:59:15.846Z,28.80
2018-11-25T11:00:09.145Z,29.90
2018-11-25T11:01:17.160Z,28.20
2018-11-25T11:02:08.501Z,29.20
2018-11-25T11:03:08.507Z,28.60
2018-11-25T11:04:14.473Z,30.70
2018-11-25T11:05:08.486Z,30.80
2018-11-25T11:06:14.747Z,29.80
2018-11-25T11:07:08.441Z,29.30
2018-11-25T11:08:08.469Z,27.30
2018-11-25T11:09:01.400Z,27.00
2018-11-25T11:10:01.399Z,25.90
2018-11-25T11:11:01.379Z,27.50
2018-11-25T11:12:01.367Z,26.70
2018-11-25T11:13:08.376Z,25.90
2018-11-25T11:14:01.343Z,27.70
2018-11-25T11:15:01.375Z,25.50
2018-11-25T11:16:08.341Z,26.70
2018-11-25T11:17:08.332Z,26.40
2018-11-25T11:18:01.298Z,26.60
2018-11-25T11:19:01.291Z,26.20
2018-11-25T11:20:08.341Z,27.70
2018-11-25T11:21:01.267Z,27.20
2018-11-25T11:22:01.257Z,25.60
2018-11-25T11:23:01.245Z,26.70
2018-11-25T11:24:01.231Z,26.20
2018-11-25T11:25:01.223Z,28.30
2018-11-25T11:26:06.713Z,26.80
2018-11-25T11:27:02.198Z,27.20
2018-11-25T11:28:09.059Z,25.90
2018-11-25T11:29:01.180Z,27.30
2018-11-25T11:30:01.174Z,29.10
2018-11-25T11:31:13.293Z,29.00
2018-11-25T11:32:02.148Z,30.50
2018-11-25T11:33:01.138Z,30.40
2018-11-25T11:34:01.121Z,29.50
2018-11-25T11:35:08.130Z,27.30
2018-11-25T11:36:01.115Z,29.00
2018-11-25T11:37:01.091Z,27.70
2018-11-25T11:38:01.078Z,28.20
2018-11-25T11:39:01.068Z,27.50
2018-11-25T11:40:01.053Z,34.10
2018-11-25T11:41:08.088Z,29.50
2018-11-25T11:42:08.064Z,28.20
2018-11-25T11:43:01.021Z,28.60
2018-11-25T11:44:01.018Z,28.80
2018-11-25T11:45:08.021Z,30.00
2018-11-25T11:46:08.038Z,29.90
2018-11-25T11:47:08.000Z,32.90
2018-11-25T11:48:00.971Z,28.60
2018-11-25T11:49:00.957Z,30.20
2018-11-25T11:50:00.945Z,31.20
2018-11-25T11:51:00.949Z,31.50
2018-11-25T11:52:00.926Z,32.30
2018-11-25T11:53:00.909Z,27.10
2018-11-25T11:54:00.901Z,28.00
2018-11-25T11:55:00.887Z,30.10
2018-11-25T11:56:08.877Z,28.70
2018-11-25T11:57:00.872Z,29.00
2018-11-25T11:58:00.857Z,28.20
2018-11-25T11:59:00.855Z,30.30
2018-11-25T12:00:07.863Z,27.40
2018-11-25T12:01:00.836Z,28.10
2018-11-25T12:02:07.882Z,26.40
2018-11-25T12:03:00.800Z,27.10
2018-11-25T12:04:00.789Z,27.00
2018-11-25T12:05:00.859Z,25.70
2018-11-25T12:06:07.955Z,26.40
2018-11-25T12:07:00.754Z,27.10
2018-11-25T12:08:00.745Z,26.50
2018-11-25T12:09:00.731Z,27.40
2018-11-25T12:10:07.753Z,27.70
2018-11-25T12:11:00.726Z,26.30
2018-11-25T12:12:00.698Z,26.40
2018-11-25T12:13:00.688Z,27.50
2018-11-25T12:14:00.679Z,26.90
2018-11-25T12:15:00.674Z,25.60
2018-11-25T12:16:00.713Z,25.90
2018-11-25T12:17:00.644Z,25.20
2018-11-25T12:18:00.631Z,26.50
2018-11-25T12:19:00.627Z,26.60
2018-11-25T12:20:00.615Z,26.30
2018-11-25T12:21:00.599Z,27.20
2018-11-25T12:22:00.603Z,26.60
2018-11-25T12:23:07.602Z,27.10
2018-11-25T12:24:00.567Z,28.80
2018-11-25T12:25:00.616Z,28.00
2018-11-25T12:26:00.544Z,29.20
2018-11-25T12:27:00.550Z,28.50
2018-11-25T12:28:00.521Z,26.80
2018-11-25T12:29:00.570Z,28.40
2018-11-25T12:30:00.503Z,26.90
2018-11-25T12:31:00.489Z,26.00
2018-11-25T12:32:09.045Z,25.20
2018-11-25T12:33:00.475Z,25.60
2018-11-25T12:34:00.458Z,26.20
2018-11-25T12:35:00.445Z,25.80
2018-11-25T12:36:07.464Z,25.90
2018-11-25T12:37:08.118Z,25.40
2018-11-25T12:38:00.416Z,24.80
2018-11-25T12:39:07.422Z,26.80
2018-11-25T12:40:00.391Z,27.70
2018-11-25T12:41:00.379Z,26.60
2018-11-25T12:42:00.378Z,28.30
2018-11-25T12:43:00.367Z,26.60
2018-11-25T12:44:00.349Z,27.20
2018-11-25T12:45:00.333Z,26.60
2018-11-25T12:46:07.345Z,25.90
2018-11-25T12:47:00.325Z,27.30
2018-11-25T12:48:00.331Z,27.50
2018-11-25T12:49:00.303Z,26.80
2018-11-25T12:50:07.306Z,28.30
2018-11-25T12:51:00.267Z,29.20
2018-11-25T12:52:00.264Z,29.70
2018-11-25T12:53:07.280Z,27.50
2018-11-25T12:54:08.249Z,28.90
2018-11-25T12:55:00.253Z,29.60
2018-11-25T12:56:00.212Z,29.80
2018-11-25T13:00:10.518Z,25.20
2018-11-25T13:03:10.293Z,26.30
2018-11-25T13:06:10.745Z,26.60
2018-11-25T13:07:20.740Z,26.90
2018-11-25T13:09:59.263Z,26.80
2018-11-25T13:13:09.805Z,24.10
2018-11-25T13:14:09.648Z,28.80
2018-11-25T13:16:39.111Z,25.30
2018-11-25T13:17:38.907Z,28.10
2018-11-25T13:20:49.343Z,24.90
2018-11-25T13:21:49.323Z,28.70
2018-11-25T13:24:18.989Z,26.70
2018-11-25T13:27:51.614Z,26.00
2018-11-25T13:28:51.580Z,26.90
2018-11-25T13:29:51.573Z,26.70
2018-11-25T13:30:51.555Z,24.70
2018-11-25T13:31:51.542Z,26.60
2018-11-25T13:32:51.542Z,25.80
2018-11-25T13:33:51.525Z,27.60
2018-11-25T13:34:51.509Z,24.90
2018-11-25T13:35:51.516Z,24.50
2018-11-25T13:36:51.489Z,25.40
2018-11-25T13:37:51.491Z,24.60
2018-11-25T13:38:51.489Z,24.90
2018-11-25T13:39:51.452Z,25.10
2018-11-25T13:40:51.444Z,25.00
2018-11-25T13:41:51.438Z,25.30
2018-11-25T13:42:51.436Z,25.50
2018-11-25T13:43:51.423Z,25.60
2018-11-25T13:44:51.404Z,24.30
2018-11-25T13:45:51.394Z,25.10
2018-11-25T13:46:51.383Z,25.10
2018-11-25T13:47:51.395Z,26.30
2018-11-25T13:48:51.358Z,25.20
2018-11-25T13:49:51.346Z,25.30
2018-11-25T13:50:51.341Z,26.30
2018-11-25T13:51:51.328Z,24.70
2018-11-25T13:52:51.326Z,26.10
2018-11-25T13:53:51.316Z,25.80
2018-11-25T13:54:51.288Z,27.00
2018-11-25T13:55:51.281Z,27.60
2018-11-25T13:56:51.264Z,26.60
2018-11-25T13:57:51.256Z,25.10
2018-11-25T13:58:51.254Z,25.30
2018-11-25T13:59:51.229Z,24.70
2018-11-25T14:00:51.226Z,26.20
2018-11-25T14:01:51.214Z,26.40
2018-11-25T14:02:51.196Z,25.70
2018-11-25T14:03:51.202Z,26.50
2018-11-25T14:04:51.177Z,25.80
2018-11-25T14:05:53.099Z,26.70
2018-11-25T14:06:51.160Z,27.30
2018-11-25T14:07:51.146Z,26.30
2018-11-25T14:08:51.147Z,26.40
2018-11-25T14:09:51.122Z,26.90
2018-11-25T14:10:51.110Z,25.40
2018-11-25T14:11:51.098Z,26.20
2018-11-25T14:12:51.087Z,26.90
2018-11-25T14:13:51.089Z,25.60
2018-11-25T14:14:51.095Z,26.10
2018-11-25T14:15:51.053Z,26.60
2018-11-25T14:16:51.043Z,26.90
2018-11-25T14:17:51.037Z,26.70
2018-11-25T14:18:51.031Z,26.50
2018-11-25T14:19:51.009Z,27.10
2018-11-25T14:20:51.001Z,28.20
2018-11-25T14:21:50.990Z,27.80
2018-11-25T14:22:50.976Z,27.20
2018-11-25T14:23:50.995Z,28.70
2018-11-25T14:24:50.963Z,29.10
2018-11-25T14:25:50.945Z,28.50
2018-11-25T14:26:50.936Z,30.20
2018-11-25T14:27:50.920Z,27.10
2018-11-25T14:28:50.965Z,29.00
2018-11-25T14:29:50.916Z,28.00
2018-11-25T14:30:50.896Z,28.60
2018-11-25T14:31:50.884Z,29.20
2018-11-25T14:32:50.881Z,28.70
2018-11-25T14:33:50.859Z,28.00
2018-11-25T14:34:50.856Z,30.30
2018-11-25T14:35:50.836Z,28.60
2018-11-25T14:36:50.821Z,29.30
2018-11-25T14:37:50.811Z,37.50
2018-11-25T14:38:50.801Z,40.70
2018-11-25T14:39:50.802Z,36.60
2018-11-25T14:40:50.779Z,32.70
2018-11-25T14:41:50.769Z,35.50
2018-11-25T14:42:50.756Z,31.20
2018-11-25T14:43:50.744Z,31.60
2018-11-25T14:44:50.760Z,30.20
2018-11-25T14:45:50.722Z,32.20
2018-11-25T14:46:50.713Z,30.30
2018-11-25T14:47:50.709Z,34.80
2018-11-25T14:48:50.689Z,31.60
2018-11-25T14:49:50.695Z,29.00
2018-11-25T14:50:50.679Z,29.60
2018-11-25T14:51:50.665Z,29.80
2018-11-25T14:52:50.651Z,30.80
2018-11-25T14:53:50.643Z,29.60
2018-11-25T14:54:51.284Z,29.10
2018-11-25T14:55:50.634Z,29.40
2018-11-25T14:56:50.605Z,30.00
2018-11-25T14:57:50.597Z,30.30
2018-11-25T14:58:50.582Z,30.00
2018-11-25T14:59:50.569Z,30.10
2018-11-25T15:00:50.774Z,31.20
2018-11-25T15:01:50.556Z,31.50
2018-11-25T15:02:50.544Z,31.30
2018-11-25T15:03:50.530Z,30.40
2018-11-25T15:04:50.520Z,30.80
2018-11-25T15:05:50.523Z,30.50
2018-11-25T15:06:50.489Z,33.20
2018-11-25T15:07:50.482Z,31.30
2018-11-25T15:08:50.471Z,31.10
2018-11-25T15:09:50.456Z,31.80
2018-11-25T15:10:50.535Z,30.90
2018-11-25T15:11:50.450Z,28.90
2018-11-25T15:12:50.431Z,30.40
2018-11-25T15:13:50.433Z,29.60
2018-11-25T15:14:50.408Z,31.10
2018-11-25T15:15:50.408Z,31.70
2018-11-25T15:16:50.385Z,31.90
2018-11-25T15:17:50.417Z,29.60
2018-11-25T15:18:50.363Z,32.70
2018-11-25T15:19:50.353Z,29.90
2018-11-25T15:20:50.409Z,30.80